createdAt,value
2022-10-09T00:00:45.014Z,100171.73
2022-10-09T00:01:49.280Z,100165.52
2022-10-09T00:02:51.970Z,100168.89
2022-10-09T00:03:54.500Z,100173.20
2022-10-09T00:04:56.656Z,100165.19
2022-10-09T00:05:58.753Z,100165.09
2022-10-09T00:07:01.401Z,100168.43
2022-10-09T00:08:03.560Z,100163.92
2022-10-09T00:09:05.698Z,100167.39
2022-10-09T00:10:07.852Z,100172.64
2022-10-09T00:11:09.974Z,100174.30
2022-10-09T00:12:12.151Z,100166.42
2022-10-09T00:13:14.280Z,100168.10
2022-10-09T00:14:16.443Z,100159.39
2022-10-09T00:15:18.563Z,100168.23
2022-10-09T00:16:20.708Z,100156.05
2022-10-09T00:17:22.849Z,100159.62
2022-10-09T00:18:25.013Z,100155.21
2022-10-09T00:19:27.139Z,100151.84
2022-10-09T00:20:29.270Z,100157.09
2022-10-09T00:21:31.396Z,100156.99
2022-10-09T00:22:33.544Z,100155.21
2022-10-09T00:23:35.668Z,100150.80
2022-10-09T00:24:37.809Z,100156.05
2022-10-09T00:25:39.974Z,100151.52
2022-10-09T00:26:42.126Z,100150.58
2022-10-09T00:27:44.344Z,100157.51
2022-10-09T00:28:47.474Z,100147.72
2022-10-09T00:29:50.138Z,100151.19
2022-10-09T00:30:54.023Z,100152.87
2022-10-09T00:31:57.184Z,100143.21
2022-10-09T00:33:00.199Z,100137.12
2022-10-09T00:34:02.346Z,100143.21
2022-10-09T00:35:04.569Z,100146.55
2022-10-09T00:36:06.707Z,100137.73
2022-10-09T00:37:26.907Z,100145.47
2022-10-09T00:38:29.296Z,100151.56
2022-10-09T00:39:31.985Z,100139.28
2022-10-09T00:40:34.341Z,100146.22
2022-10-09T00:41:36.758Z,100144.44
2022-10-09T00:42:39.160Z,100147.06
2022-10-09T00:43:41.326Z,100142.75
2022-10-09T00:44:43.466Z,100136.66
2022-10-09T00:45:45.674Z,100144.53
2022-10-09T00:46:47.977Z,100144.53
2022-10-09T00:47:50.772Z,100142.04
2022-10-09T00:49:11.675Z,100144.66
2022-10-09T00:50:14.756Z,100143.92
2022-10-09T00:51:17.346Z,100145.70
2022-10-09T00:52:20.031Z,100141.53
2022-10-09T00:53:22.742Z,100148.56
2022-10-09T00:54:25.461Z,100144.25
2022-10-09T00:55:28.354Z,100145.22
2022-10-09T00:56:31.028Z,100136.74
2022-10-09T00:57:33.715Z,100138.63
2022-10-09T00:58:36.407Z,100142.31
2022-10-09T00:59:39.402Z,100142.42
2022-10-09T01:00:42.903Z,100137.17
2022-10-09T01:01:46.013Z,100139.80
2022-10-09T01:02:50.158Z,100140.73
2022-10-09T01:03:53.471Z,100144.33
2022-10-09T01:04:56.408Z,100132.25
2022-10-09T01:05:59.392Z,100142.88
2022-10-09T01:07:03.630Z,100138.66
2022-10-09T01:08:06.569Z,100130.92
2022-10-09T01:09:09.469Z,100131.97
2022-10-09T01:10:13.979Z,100136.41
2022-10-09T01:11:16.997Z,100131.35
2022-10-09T01:12:19.681Z,100133.48
2022-10-09T01:13:22.374Z,100132.75
2022-10-09T01:14:24.960Z,100139.16
2022-10-09T01:15:27.719Z,100134.04
2022-10-09T01:16:31.307Z,100134.36
2022-10-09T01:17:33.905Z,100137.92
2022-10-09T01:18:36.598Z,100133.62
2022-10-09T01:19:39.287Z,100131.97
2022-10-09T01:20:42.328Z,100130.38
2022-10-09T01:21:45.223Z,100128.83
2022-10-09T01:22:48.418Z,100129.05
2022-10-09T01:23:51.568Z,100135.23
2022-10-09T01:24:54.458Z,100124.97
2022-10-09T01:25:57.528Z,100125.81
2022-10-09T01:27:01.043Z,100125.91
2022-10-09T01:28:03.779Z,100119.81
2022-10-09T01:29:06.318Z,100122.57
2022-10-09T01:30:10.644Z,100113.95
2022-10-09T01:32:23.801Z,100127.27
2022-10-09T01:33:26.296Z,100113.95
2022-10-09T01:34:28.782Z,100108.72
2022-10-09T01:35:31.650Z,100106.22
2022-10-09T01:36:34.986Z,100109.78
2022-10-09T01:37:37.567Z,100104.41
2022-10-09T01:38:40.311Z,100109.65
2022-10-09T01:39:42.908Z,100113.11
2022-10-09T01:40:46.214Z,100114.08
2022-10-09T01:41:48.839Z,100109.65
2022-10-09T01:42:51.701Z,100109.65
2022-10-09T01:43:54.857Z,100108.72
2022-10-09T01:44:57.440Z,100109.55
2022-10-09T01:46:00.183Z,100109.65
2022-10-09T01:47:03.237Z,100111.47
2022-10-09T01:48:05.762Z,100116.58
2022-10-09T01:49:08.425Z,100115.55
2022-10-09T01:50:11.727Z,100119.10
2022-10-09T01:51:14.415Z,100111.11
2022-10-09T01:52:17.130Z,100117.20
2022-10-09T01:53:20.053Z,100118.98
2022-10-09T01:54:22.739Z,100114.48
2022-10-09T01:55:25.434Z,100113.54
2022-10-09T01:56:28.642Z,100106.48
2022-10-09T01:57:31.402Z,100114.48
2022-10-09T01:58:34.304Z,100108.39
2022-10-09T01:59:36.987Z,100103.05
2022-10-09T02:00:40.026Z,100114.35
2022-10-09T02:01:43.366Z,100116.16
2022-10-09T02:02:46.732Z,100106.48
2022-10-09T02:03:50.156Z,100110.92
2022-10-09T02:04:52.745Z,100107.55
2022-10-09T02:05:55.463Z,100105.06
2022-10-09T02:06:58.442Z,100104.31
2022-10-09T02:08:01.160Z,100107.03
2022-10-09T02:09:03.748Z,100111.47
2022-10-09T02:10:07.765Z,100119.33
2022-10-09T02:11:10.706Z,100120.36
2022-10-09T02:12:13.598Z,100115.12
2022-10-09T02:13:16.643Z,100115.95
2022-10-09T02:14:19.260Z,100112.63
2022-10-09T02:15:21.954Z,100117.03
2022-10-09T02:16:25.331Z,100115.44
2022-10-09T02:17:28.166Z,100126.77
2022-10-09T02:18:30.903Z,100118.28
2022-10-09T02:19:33.800Z,100117.44
2022-10-09T02:20:36.793Z,100112.33
2022-10-09T02:21:39.536Z,100119.25
2022-10-09T02:22:42.173Z,100110.42
2022-10-09T02:23:44.902Z,100111.39
2022-10-09T02:24:47.812Z,100115.79
2022-10-09T02:25:50.496Z,100118.41
2022-10-09T02:26:53.494Z,100112.42
2022-10-09T02:27:56.417Z,100119.56
2022-10-09T02:28:59.130Z,100112.55
2022-10-09T02:30:02.021Z,100108.24
2022-10-09T02:31:05.310Z,100117.88
2022-10-09T02:32:07.984Z,100114.55
2022-10-09T02:33:10.672Z,100113.70
2022-10-09T02:34:13.424Z,100113.80
2022-10-09T02:35:16.016Z,100116.42
2022-10-09T02:36:19.324Z,100114.64
2022-10-09T02:37:22.019Z,100114.73
2022-10-09T02:38:24.606Z,100114.02
2022-10-09T02:39:27.348Z,100122.73
2022-10-09T02:40:30.069Z,100119.27
2022-10-09T02:41:32.960Z,100109.72
2022-10-09T02:42:35.688Z,100114.95
2022-10-09T02:43:38.285Z,100113.18
2022-10-09T02:44:40.998Z,100114.12
2022-10-09T02:45:44.038Z,100116.73
2022-10-09T02:46:47.610Z,100109.94
2022-10-09T02:47:50.539Z,100116.02
2022-10-09T02:48:53.260Z,100110.88
2022-10-09T02:49:55.895Z,100113.50
2022-10-09T02:50:58.784Z,100111.72
2022-10-09T02:52:01.476Z,100106.47
2022-10-09T02:53:04.170Z,100111.81
2022-10-09T02:54:06.797Z,100107.41
2022-10-09T02:55:09.543Z,100104.92
2022-10-09T02:56:13.459Z,100110.25
2022-10-09T02:57:16.067Z,100112.03
2022-10-09T02:58:18.753Z,100111.31
2022-10-09T02:59:21.436Z,100108.70
2022-10-09T03:00:25.377Z,100115.71
2022-10-09T03:01:29.200Z,100105.33
2022-10-09T03:02:32.249Z,100106.16
2022-10-09T03:03:35.495Z,100104.39
2022-10-09T03:04:38.105Z,100105.33
2022-10-09T03:05:40.864Z,100108.78
2022-10-09T03:06:43.762Z,100112.47
2022-10-09T03:07:46.454Z,100106.39
2022-10-09T03:08:49.093Z,100115.19
2022-10-09T03:09:51.774Z,100105.77
2022-10-09T03:10:54.820Z,100109.32
2022-10-09T03:11:57.420Z,100111.94
2022-10-09T03:13:00.113Z,100116.43
2022-10-09T03:14:02.782Z,100108.66
2022-10-09T03:15:05.498Z,100105.33
2022-10-09T03:16:09.856Z,100102.80
2022-10-09T03:17:12.990Z,100107.20
2022-10-09T03:18:15.676Z,100104.70
2022-10-09T03:19:18.269Z,100099.55
2022-10-09T03:20:21.578Z,100102.27
2022-10-09T03:21:24.310Z,100105.86
2022-10-09T03:22:26.901Z,100100.70
2022-10-09T03:23:29.597Z,100099.86
2022-10-09T03:24:32.191Z,100100.92
2022-10-09T03:25:34.886Z,100099.23
2022-10-09T03:26:37.599Z,100096.72
2022-10-09T03:27:40.295Z,100102.80
2022-10-09T03:28:43.248Z,100106.47
2022-10-09T03:29:46.190Z,100099.45
2022-10-09T03:30:49.654Z,100098.70
2022-10-09T03:31:53.513Z,100090.98
2022-10-09T03:32:56.723Z,100093.59
2022-10-09T03:33:59.316Z,100096.21
2022-10-09T03:35:02.012Z,100097.98
2022-10-09T03:36:05.040Z,100093.59
2022-10-09T03:37:07.690Z,100088.45
2022-10-09T03:38:10.615Z,100093.69
2022-10-09T03:39:13.318Z,100088.58
2022-10-09T03:40:16.625Z,100088.58
2022-10-09T03:41:19.216Z,100084.98
2022-10-09T03:42:21.926Z,100083.96
2022-10-09T03:43:24.622Z,100080.38
2022-10-09T03:44:27.230Z,100075.98
2022-10-09T03:45:29.917Z,100080.38
2022-10-09T03:46:33.243Z,100089.20
2022-10-09T03:47:35.946Z,100089.07
2022-10-09T03:48:38.950Z,100087.30
2022-10-09T03:49:41.642Z,100086.45
2022-10-09T03:50:44.840Z,100084.80
2022-10-09T03:51:48.016Z,100089.20
2022-10-09T03:52:51.237Z,100086.58
2022-10-09T03:53:54.045Z,100084.89
2022-10-09T03:54:56.722Z,100080.50
2022-10-09T03:55:59.415Z,100089.20
2022-10-09T03:57:02.725Z,100083.12
2022-10-09T03:58:05.370Z,100079.56
2022-10-09T03:59:07.948Z,100083.96
2022-10-09T04:00:11.278Z,100082.99
2022-10-09T04:01:14.017Z,100082.90
2022-10-09T04:02:17.304Z,100081.00
2022-10-09T04:03:20.269Z,100086.23
2022-10-09T04:04:22.863Z,100083.44
2022-10-09T04:05:25.674Z,100084.37
2022-10-09T04:06:29.223Z,100080.91
2022-10-09T04:07:32.122Z,100083.31
2022-10-09T04:08:34.912Z,100077.05
2022-10-09T04:09:37.802Z,100079.44
2022-10-09T04:10:41.140Z,100078.38
2022-10-09T04:11:43.719Z,100078.06
2022-10-09T04:12:46.671Z,100070.02
2022-10-09T04:13:49.727Z,100066.15
2022-10-09T04:14:52.915Z,100065.83
2022-10-09T04:15:55.653Z,100069.07
2022-10-09T04:16:58.614Z,100071.15
2022-10-09T04:18:01.236Z,100068.17
2022-10-09T04:19:03.991Z,100065.23
2022-10-09T04:20:08.305Z,100058.61
2022-10-09T04:21:11.108Z,100059.73
2022-10-09T04:22:13.982Z,100058.57
2022-10-09T04:23:16.761Z,100063.48
2022-10-09T04:24:19.543Z,100058.63
2022-10-09T04:25:22.435Z,100059.24
2022-10-09T04:26:25.887Z,100057.13
2022-10-09T04:27:28.672Z,100062.89
2022-10-09T04:28:31.446Z,100057.28
2022-10-09T04:29:34.397Z,100063.87
2022-10-09T04:30:37.281Z,100059.14
2022-10-09T04:31:40.000Z,100057.60
2022-10-09T04:32:42.944Z,100058.20
2022-10-09T04:33:45.664Z,100058.72
2022-10-09T04:34:48.280Z,100056.80
2022-10-09T04:35:50.970Z,100060.16
2022-10-09T04:36:54.881Z,100057.91
2022-10-09T04:37:57.470Z,100065.55
2022-10-09T04:39:00.170Z,100066.99
2022-10-09T04:40:03.800Z,100065.71
2022-10-09T04:41:06.491Z,100068.83
2022-10-09T04:42:09.061Z,100062.27
2022-10-09T04:43:11.745Z,100070.41
2022-10-09T04:44:14.532Z,100058.61
2022-10-09T04:45:17.483Z,100069.48
2022-10-09T04:46:20.713Z,100068.16
2022-10-09T04:47:23.376Z,100064.09
2022-10-09T04:48:26.059Z,100066.27
2022-10-09T04:49:28.743Z,100061.26
2022-10-09T04:50:32.366Z,100058.14
2022-10-09T04:51:35.266Z,100058.48
2022-10-09T04:52:37.945Z,100058.73
2022-10-09T04:53:40.571Z,100058.97
2022-10-09T04:54:43.263Z,100064.34
2022-10-09T04:55:46.009Z,100058.34
2022-10-09T04:56:49.508Z,100057.76
2022-10-09T04:57:52.195Z,100053.56
2022-10-09T04:58:54.888Z,100062.62
2022-10-09T04:59:57.570Z,100056.27
2022-10-09T05:01:00.655Z,100056.34
2022-10-09T05:02:04.525Z,100045.51
2022-10-09T05:03:07.375Z,100053.55
2022-10-09T05:04:10.358Z,100051.59
2022-10-09T05:05:13.038Z,100044.30
2022-10-09T05:06:16.697Z,100047.59
2022-10-09T05:07:19.282Z,100048.20
2022-10-09T05:08:22.031Z,100047.03
2022-10-09T05:09:24.656Z,100050.42
2022-10-09T05:10:27.339Z,100058.23
2022-10-09T05:11:30.055Z,100061.88
2022-10-09T05:12:32.645Z,100055.22
2022-10-09T05:13:35.950Z,100056.55
2022-10-09T05:14:38.633Z,100057.51
2022-10-09T05:15:41.337Z,100056.88
2022-10-09T05:17:11.929Z,100053.43
2022-10-09T05:17:50.337Z,100047.03
2022-10-09T05:18:52.918Z,100052.62
2022-10-09T05:19:55.634Z,100057.19
2022-10-09T05:20:58.629Z,100050.81
2022-10-09T05:22:01.400Z,100048.16
2022-10-09T05:23:04.418Z,100049.98
2022-10-09T05:24:10.186Z,100055.67
2022-10-09T05:25:11.647Z,100054.43
2022-10-09T05:26:15.067Z,100049.53
2022-10-09T05:27:17.688Z,100062.05
2022-10-09T05:28:20.427Z,100055.89
2022-10-09T05:29:23.390Z,100059.08
2022-10-09T05:30:27.009Z,100056.81
2022-10-09T05:31:29.642Z,100059.16
2022-10-09T05:32:32.608Z,100067.79
2022-10-09T05:33:35.332Z,100066.23
2022-10-09T05:34:37.924Z,100066.23
2022-10-09T05:35:40.607Z,100067.59
2022-10-09T05:36:44.202Z,100061.99
2022-10-09T05:37:46.922Z,100061.70
2022-10-09T05:38:49.896Z,100067.09
2022-10-09T05:39:52.493Z,100063.71
2022-10-09T05:40:56.731Z,100063.04
2022-10-09T05:41:59.412Z,100062.00
2022-10-09T05:43:02.346Z,100060.42
2022-10-09T05:44:05.028Z,100066.42
2022-10-09T05:45:07.725Z,100064.67
2022-10-09T05:46:11.985Z,100066.22
2022-10-09T05:47:14.562Z,100069.27
2022-10-09T05:48:17.286Z,100064.19
2022-10-09T05:49:20.246Z,100065.18
2022-10-09T05:50:23.859Z,100059.26
2022-10-09T05:51:26.444Z,100057.66
2022-10-09T05:52:29.134Z,100065.27
2022-10-09T05:53:31.869Z,100067.14
2022-10-09T05:54:34.864Z,100060.69
2022-10-09T05:55:37.561Z,100064.45
2022-10-09T05:56:40.760Z,100069.49
2022-10-09T05:57:43.356Z,100059.08
2022-10-09T05:58:46.060Z,100059.12
2022-10-09T05:59:48.757Z,100058.25
2022-10-09T06:00:52.228Z,100056.66
2022-10-09T06:01:55.601Z,100055.69
2022-10-09T06:02:58.867Z,100057.39
2022-10-09T06:04:01.904Z,100055.72
2022-10-09T06:05:04.505Z,100050.44
2022-10-09T06:06:08.792Z,100047.02
2022-10-09T06:07:11.379Z,100050.86
2022-10-09T06:08:14.334Z,100049.72
2022-10-09T06:09:17.077Z,100057.84
2022-10-09T06:10:21.289Z,100050.55
2022-10-09T06:11:24.109Z,100050.24
2022-10-09T06:12:26.690Z,100057.22
2022-10-09T06:13:29.342Z,100056.91
2022-10-09T06:14:32.288Z,100056.09
2022-10-09T06:15:34.876Z,100056.27
2022-10-09T06:16:38.209Z,100050.27
2022-10-09T06:17:41.185Z,100052.59
2022-10-09T06:19:53.949Z,100057.42
2022-10-09T06:20:57.204Z,100045.30
2022-10-09T06:21:59.714Z,100049.25
2022-10-09T06:23:02.504Z,100048.27
2022-10-09T06:24:05.436Z,100046.80
2022-10-09T06:25:08.291Z,100040.78
2022-10-09T06:26:12.534Z,100041.28
2022-10-09T06:27:15.329Z,100043.06
2022-10-09T06:28:18.088Z,100037.88
2022-10-09T06:29:21.036Z,100039.98
2022-10-09T06:30:24.658Z,100037.91
2022-10-09T06:31:27.330Z,100037.11
2022-10-09T06:32:30.558Z,100027.59
2022-10-09T06:33:33.243Z,100030.84
2022-10-09T06:34:35.828Z,100030.79
2022-10-09T06:35:38.535Z,100040.63
2022-10-09T06:36:41.836Z,100025.20
2022-10-09T06:37:44.533Z,100033.51
2022-10-09T06:38:47.181Z,100033.15
2022-10-09T06:39:49.864Z,100020.81
2022-10-09T06:40:53.198Z,100026.08
2022-10-09T06:41:56.089Z,100024.48
2022-10-09T06:42:58.787Z,100025.61
2022-10-09T06:44:01.485Z,100017.45
2022-10-09T06:45:04.064Z,100023.41
2022-10-09T06:46:08.572Z,100022.88
2022-10-09T06:47:11.297Z,100016.82
2022-10-09T06:48:13.994Z,100012.35
2022-10-09T06:49:16.594Z,100009.22
2022-10-09T06:50:19.900Z,100005.98
2022-10-09T06:51:22.632Z,100009.84
2022-10-09T06:52:25.585Z,100010.89
2022-10-09T06:53:28.192Z,100006.23
2022-10-09T06:54:30.877Z,100001.42
2022-10-09T06:55:33.378Z,99999.91
2022-10-09T06:56:36.239Z,99993.47
2022-10-09T06:57:38.931Z,99993.16
2022-10-09T06:58:41.528Z,99997.59
2022-10-09T06:59:44.218Z,99993.20
2022-10-09T07:00:47.518Z,99991.31
2022-10-09T07:01:50.559Z,99989.56
2022-10-09T07:02:54.046Z,99986.05
2022-10-09T07:03:57.737Z,99987.94
2022-10-09T07:05:00.665Z,99988.03
2022-10-09T07:06:04.920Z,99982.55
2022-10-09T07:07:07.539Z,99983.81
2022-10-09T07:08:10.232Z,99982.66
2022-10-09T07:09:12.826Z,99983.86
2022-10-09T07:10:19.554Z,99983.64
2022-10-09T07:11:21.606Z,99980.20
2022-10-09T07:12:24.644Z,99975.69
2022-10-09T07:13:27.550Z,99977.81
2022-10-09T07:14:30.282Z,99977.14
2022-10-09T07:15:32.921Z,99982.31
2022-10-09T07:16:36.152Z,99977.66
2022-10-09T07:17:38.897Z,99977.27
2022-10-09T07:18:41.788Z,99972.99
2022-10-09T07:19:44.587Z,99964.41
2022-10-09T07:20:48.094Z,99972.59
2022-10-09T07:23:00.749Z,99966.45
2022-10-09T07:24:03.458Z,99967.44
2022-10-09T07:25:06.414Z,99973.47
2022-10-09T07:26:10.137Z,99963.63
2022-10-09T07:27:13.029Z,99963.17
2022-10-09T07:28:16.110Z,99960.48
2022-10-09T07:29:18.988Z,99968.03
2022-10-09T07:30:22.243Z,99958.05
2022-10-09T07:31:25.272Z,99959.73
2022-10-09T07:32:28.548Z,99954.34
2022-10-09T07:33:31.175Z,99957.99
2022-10-09T07:34:33.866Z,99959.30
2022-10-09T07:35:36.452Z,99938.36
2022-10-09T07:36:39.446Z,99947.53
2022-10-09T07:37:42.182Z,99943.81
2022-10-09T07:38:44.831Z,99943.81
2022-10-09T07:39:47.526Z,99939.17
2022-10-09T07:40:50.124Z,99944.32
2022-10-09T07:41:52.879Z,99940.33
2022-10-09T07:42:55.470Z,99933.34
2022-10-09T07:43:58.188Z,99934.94
2022-10-09T07:45:00.813Z,99943.73
2022-10-09T07:46:04.470Z,99934.16
2022-10-09T07:47:07.429Z,99925.04
2022-10-09T07:48:10.022Z,99923.96
2022-10-09T07:49:12.766Z,99912.45
2022-10-09T07:50:16.074Z,99912.70
2022-10-09T07:51:18.982Z,99906.92
2022-10-09T07:52:21.667Z,99903.41
2022-10-09T07:53:24.364Z,99913.86
2022-10-09T07:54:26.999Z,99904.89
2022-10-09T07:55:29.687Z,99902.59
2022-10-09T07:56:33.294Z,99906.18
2022-10-09T07:57:35.888Z,99905.64
2022-10-09T07:58:38.589Z,99903.38
2022-10-09T07:59:41.302Z,99909.77
2022-10-09T08:00:44.904Z,99896.89
2022-10-09T08:01:47.854Z,99901.73
2022-10-09T08:02:51.508Z,99902.92
2022-10-09T08:03:54.859Z,99910.14
2022-10-09T08:04:57.693Z,99898.89
2022-10-09T08:06:00.689Z,99903.89
2022-10-09T08:07:04.931Z,99898.42
2022-10-09T08:08:07.561Z,99896.21
2022-10-09T08:09:10.157Z,99890.59
2022-10-09T08:10:13.490Z,99904.14
2022-10-09T08:11:16.181Z,99898.44
2022-10-09T08:12:18.676Z,99882.64
2022-10-09T08:13:21.509Z,99880.90
2022-10-09T08:14:24.193Z,99888.59
2022-10-09T08:15:26.857Z,99887.08
2022-10-09T08:16:29.816Z,99902.69
2022-10-09T08:17:32.505Z,99892.77
2022-10-09T08:18:35.097Z,99889.92
2022-10-09T08:19:37.792Z,99888.93
2022-10-09T08:20:40.576Z,99881.00
2022-10-09T08:21:43.229Z,99883.99
2022-10-09T08:22:45.898Z,99891.84
2022-10-09T08:23:49.148Z,99886.66
2022-10-09T08:24:51.832Z,99881.54
2022-10-09T08:25:54.496Z,99879.36
2022-10-09T08:26:58.003Z,99883.69
2022-10-09T08:28:00.737Z,99877.06
2022-10-09T08:29:03.331Z,99877.08
2022-10-09T08:30:07.581Z,99876.85
2022-10-09T08:31:10.546Z,99874.67
2022-10-09T08:32:13.314Z,99880.81
2022-10-09T08:33:16.376Z,99869.27
2022-10-09T08:34:18.905Z,99877.91
2022-10-09T08:35:21.848Z,99870.70
2022-10-09T08:36:25.221Z,99869.38
2022-10-09T08:37:27.823Z,99864.84
2022-10-09T08:38:46.541Z,99871.48
2022-10-09T08:39:34.992Z,99869.25
2022-10-09T08:40:37.610Z,99871.08
2022-10-09T08:41:40.361Z,99865.11
2022-10-09T08:42:42.963Z,99870.03
2022-10-09T08:43:45.708Z,99860.36
2022-10-09T08:44:48.303Z,99868.18
2022-10-09T08:45:50.999Z,99863.88
2022-10-09T08:46:54.688Z,99867.72
2022-10-09T08:47:57.559Z,99867.53
2022-10-09T08:49:00.292Z,99861.17
2022-10-09T08:50:03.210Z,99860.78
2022-10-09T08:51:05.891Z,99860.98
2022-10-09T08:52:08.668Z,99861.20
2022-10-09T08:53:11.594Z,99860.95
2022-10-09T08:54:14.481Z,99857.03
2022-10-09T08:55:16.981Z,99857.63
2022-10-09T08:56:20.183Z,99855.38
2022-10-09T08:57:22.897Z,99857.02
2022-10-09T08:58:25.752Z,99849.54
2022-10-09T08:59:28.445Z,99842.70
2022-10-09T09:00:31.456Z,99847.81
2022-10-09T09:01:34.459Z,99844.34
2022-10-09T09:02:37.435Z,99845.12
2022-10-09T09:03:40.635Z,99850.57
2022-10-09T09:04:43.626Z,99850.33
2022-10-09T09:05:46.736Z,99860.23
2022-10-09T09:06:50.974Z,99854.48
2022-10-09T09:07:53.814Z,99858.90
2022-10-09T09:08:56.824Z,99847.45
2022-10-09T09:09:59.829Z,99846.75
2022-10-09T09:11:04.065Z,99842.16
2022-10-09T09:12:06.950Z,99842.83
2022-10-09T09:13:09.973Z,99845.62
2022-10-09T09:14:12.877Z,99844.26
2022-10-09T09:15:15.884Z,99847.59
2022-10-09T09:16:19.248Z,99840.45
2022-10-09T09:17:22.112Z,99841.66
2022-10-09T09:18:24.828Z,99846.66
2022-10-09T09:19:27.511Z,99846.48
2022-10-09T09:21:42.854Z,99846.34
2022-10-09T09:22:45.800Z,99838.95
2022-10-09T09:23:48.981Z,99845.72
2022-10-09T09:24:51.864Z,99843.03
2022-10-09T09:25:54.357Z,99843.11
2022-10-09T09:26:57.272Z,99841.09
2022-10-09T09:27:59.890Z,99844.37
2022-10-09T09:29:02.681Z,99845.05
2022-10-09T09:30:06.470Z,99845.71
2022-10-09T09:31:09.183Z,99840.98
2022-10-09T09:32:12.139Z,99847.30
2022-10-09T09:33:14.769Z,99837.37
2022-10-09T09:34:17.519Z,99833.02
2022-10-09T09:35:20.106Z,99829.21
2022-10-09T09:36:24.062Z,99829.31
2022-10-09T09:37:26.695Z,99821.95
2022-10-09T09:38:29.502Z,99820.27
2022-10-09T09:40:46.748Z,99822.12
2022-10-09T09:41:47.879Z,99821.27
2022-10-09T09:42:51.011Z,99828.11
2022-10-09T09:43:54.379Z,99825.41
2022-10-09T09:44:57.019Z,99820.03
2022-10-09T09:45:59.713Z,99816.95
2022-10-09T09:47:03.032Z,99815.23
2022-10-09T09:48:05.623Z,99808.17
2022-10-09T09:49:09.565Z,99809.59
2022-10-09T09:50:35.060Z,99818.55
2022-10-09T09:51:28.081Z,99820.86
2022-10-09T09:52:21.972Z,99818.48
2022-10-09T09:53:24.309Z,99807.31
2022-10-09T09:54:26.646Z,99813.05
2022-10-09T09:55:29.009Z,99810.16
2022-10-09T09:56:42.983Z,99804.18
2022-10-09T09:57:35.630Z,99803.66
2022-10-09T09:58:38.009Z,99805.98
2022-10-09T09:59:40.366Z,99807.80
2022-10-09T10:00:42.798Z,99807.77
2022-10-09T10:01:45.259Z,99805.23
2022-10-09T10:02:48.045Z,99800.17
2022-10-09T10:03:50.901Z,99796.09
2022-10-09T10:04:53.293Z,99805.08
2022-10-09T10:05:55.811Z,99807.31
2022-10-09T10:06:58.151Z,99801.20
2022-10-09T10:08:00.744Z,99804.09
2022-10-09T10:09:03.634Z,99793.18
2022-10-09T10:10:06.936Z,99792.47
2022-10-09T10:11:09.568Z,99793.55
2022-10-09T10:12:12.301Z,99794.13
2022-10-09T10:13:14.900Z,99789.00
2022-10-09T10:14:17.615Z,99794.59
2022-10-09T10:15:20.612Z,99790.70
2022-10-09T10:16:24.682Z,99780.63
2022-10-09T10:17:27.794Z,99780.39
2022-10-09T10:18:30.388Z,99781.50
2022-10-09T10:19:33.075Z,99777.14
2022-10-09T10:20:36.394Z,99777.97
2022-10-09T10:21:39.127Z,99778.22
2022-10-09T10:22:41.721Z,99779.42
2022-10-09T10:23:44.404Z,99780.59
2022-10-09T10:24:47.087Z,99776.60
2022-10-09T10:25:50.077Z,99772.92
2022-10-09T10:26:53.479Z,99776.88
2022-10-09T10:27:56.023Z,99771.43
2022-10-09T10:28:58.718Z,99767.63
2022-10-09T10:30:01.311Z,99772.02
2022-10-09T10:31:04.059Z,99759.30
2022-10-09T10:32:07.353Z,99769.00
2022-10-09T10:33:11.601Z,99759.97
2022-10-09T10:34:15.880Z,99762.27
2022-10-09T10:35:18.217Z,99769.92
2022-10-09T10:36:20.552Z,99764.31
2022-10-09T10:37:22.928Z,99764.31
2022-10-09T10:38:25.266Z,99766.79
2022-10-09T10:39:27.613Z,99759.78
2022-10-09T10:40:29.950Z,99763.16
2022-10-09T10:41:32.289Z,99752.66
2022-10-09T10:42:36.565Z,99751.16
2022-10-09T10:43:38.711Z,99758.93
2022-10-09T10:44:40.889Z,99750.59
2022-10-09T10:45:43.034Z,99749.73
2022-10-09T10:46:45.220Z,99750.17
2022-10-09T10:47:47.799Z,99743.56
2022-10-09T10:48:50.294Z,99742.25
2022-10-09T10:49:52.544Z,99738.92
2022-10-09T10:50:54.697Z,99740.30
2022-10-09T10:51:56.889Z,99733.61
2022-10-09T10:52:59.131Z,99736.34
2022-10-09T10:54:01.287Z,99734.41
2022-10-09T10:55:03.513Z,99730.55
2022-10-09T10:56:05.705Z,99736.89
2022-10-09T10:57:07.812Z,99735.98
2022-10-09T10:58:10.037Z,99731.06
2022-10-09T10:59:12.243Z,99734.37
2022-10-09T11:00:14.490Z,99734.09
2022-10-09T11:01:17.045Z,99734.19
2022-10-09T11:02:19.804Z,99728.32
2022-10-09T11:03:22.374Z,99715.53
2022-10-09T11:04:25.052Z,99732.41
2022-10-09T11:05:27.496Z,99725.33
2022-10-09T11:06:30.047Z,99724.57
2022-10-09T11:07:33.049Z,99728.45
2022-10-09T11:08:35.722Z,99721.53
2022-10-09T11:09:38.686Z,99723.97
2022-10-09T11:10:41.343Z,99726.45
2022-10-09T11:11:43.794Z,99724.92
2022-10-09T11:12:48.542Z,99721.66
2022-10-09T11:13:50.825Z,99723.75
2022-10-09T11:14:53.277Z,99716.47
2022-10-09T11:15:55.807Z,99718.36
2022-10-09T11:16:58.624Z,99724.92
2022-10-09T11:18:01.079Z,99722.80
2022-10-09T11:19:03.661Z,99710.29
2022-10-09T11:20:06.934Z,99714.34
2022-10-09T11:21:09.382Z,99708.46
2022-10-09T11:22:11.843Z,99707.56
2022-10-09T11:23:14.291Z,99701.94
2022-10-09T11:24:16.805Z,99710.47
2022-10-09T11:25:19.266Z,99709.69
2022-10-09T11:26:21.709Z,99716.84
2022-10-09T11:28:34.295Z,99707.20
2022-10-09T11:29:36.834Z,99702.52
2022-10-09T11:30:39.311Z,99702.52
2022-10-09T11:31:41.827Z,99701.69
2022-10-09T11:32:44.618Z,99701.59
2022-10-09T11:33:47.058Z,99696.77
2022-10-09T11:34:50.143Z,99700.42
2022-10-09T11:35:52.655Z,99702.86
2022-10-09T11:36:55.574Z,99705.25
2022-10-09T11:37:58.172Z,99707.02
2022-10-09T11:39:01.125Z,99699.12
2022-10-09T11:40:03.715Z,99701.47
2022-10-09T11:42:16.303Z,99694.29
2022-10-09T11:43:18.748Z,99689.70
2022-10-09T11:44:21.245Z,99694.47
2022-10-09T11:45:23.829Z,99692.50
2022-10-09T11:46:26.537Z,99698.21
2022-10-09T11:47:29.062Z,99685.72
2022-10-09T11:48:31.510Z,99700.91
2022-10-09T11:49:33.950Z,99688.97
2022-10-09T11:50:36.439Z,99687.68
2022-10-09T11:51:38.879Z,99696.20
2022-10-09T11:52:41.568Z,99699.33
2022-10-09T11:53:44.074Z,99692.58
2022-10-09T11:54:46.647Z,99692.60
2022-10-09T11:55:49.469Z,99682.67
2022-10-09T11:56:52.007Z,99692.33
2022-10-09T11:57:54.459Z,99689.23
2022-10-09T11:58:56.911Z,99689.48
2022-10-09T11:59:59.360Z,99688.09
2022-10-09T12:01:02.174Z,99688.08
2022-10-09T12:02:04.770Z,99686.64
2022-10-09T12:03:07.261Z,99688.14
2022-10-09T12:04:09.703Z,99682.44
2022-10-09T12:05:12.146Z,99681.20
2022-10-09T12:06:14.822Z,99690.66
2022-10-09T12:07:17.264Z,99680.94
2022-10-09T12:08:19.953Z,99683.02
2022-10-09T12:09:22.593Z,99681.14
2022-10-09T12:10:25.038Z,99682.62
2022-10-09T12:11:27.506Z,99684.35
2022-10-09T12:12:29.956Z,99687.66
2022-10-09T12:13:32.391Z,99686.46
2022-10-09T12:14:34.830Z,99680.29